Time;durP1;ratioP1;P1;durP2;ratioP2;P2;SDS_P1;SDS_P2;PMS_P1;PMS_P2;Temp;Humidity;BMP_temperature;BMP_pressure;BME280_temperature;BME280_humidity;BME280_pressure;Samples;Min_cycle;Max_cycle;Signal;HPM_P1;HPM_P2
2022/05/10 00:02:17;;;;;;;12.60;8.70;;;;;;;;;;5060546;27;96967;-76
2022/05/10 00:04:46;;;;;;;23.08;9.43;;;;;;;;;;5052573;27;95187;-75
2022/05/10 00:07:12;;;;;;;15.40;9.00;;;;;;;;;;5054451;27;96839;-74
2022/05/10 00:09:38;;;;;;;19.52;9.18;;;;;;;;;;5059664;27;95342;-76
2022/05/10 00:12:05;;;;;;;18.27;8.57;;;;;;;;;;5055806;27;96579;-73
2022/05/10 00:14:31;;;;;;;23.52;9.82;;;;;;;;;;5054576;27;97068;-73
2022/05/10 00:16:58;;;;;;;25.58;10.38;;;;;;;;;;5058147;27;95361;-76
2022/05/10 00:19:27;;;;;;;15.70;9.50;;;;;;;;;;5065332;27;96773;-76
2022/05/10 00:21:54;;;;;;;14.98;9.80;;;;;;;;;;5075851;27;97292;-76
2022/05/10 00:24:20;;;;;;;17.90;10.30;;;;;;;;;;5075732;27;95222;-76
2022/05/10 00:26:48;;;;;;;15.52;9.57;;;;;;;;;;5062150;27;95623;-75
2022/05/10 00:29:14;;;;;;;15.85;10.82;;;;;;;;;;5058362;27;97293;-75
2022/05/10 00:31:41;;;;;;;20.75;9.98;;;;;;;;;;5054884;27;97118;-76
2022/05/10 00:34:07;;;;;;;16.80;9.85;;;;;;;;;;5054748;27;97442;-75
2022/05/10 00:36:34;;;;;;;17.25;9.90;;;;;;;;;;5056568;27;95337;-75
2022/05/10 00:39:00;;;;;;;16.08;10.23;;;;;;;;;;5069220;27;97020;-74
2022/05/10 00:41:31;;;;;;;20.42;11.10;;;;;;;;;;5054191;27;97423;-76
2022/05/10 00:43:59;;;;;;;17.80;10.30;;;;;;;;;;5054689;27;95547;-76
2022/05/10 00:46:25;;;;;;;23.90;11.15;;;;;;;;;;5054387;27;97107;-76
2022/05/10 00:49:05;;;;;;;21.63;11.70;;;;;;;;;;5053673;27;97245;-75
2022/05/10 00:51:38;;;;;;;20.48;11.18;;;;;;;;;;5057946;27;95355;-76
2022/05/10 00:54:08;;;;;;;18.02;11.73;;;;;;;;;;5055085;27;97722;-76
2022/05/10 00:56:37;;;;;;;20.73;10.88;;;;;;;;;;5057502;27;95328;-75
2022/05/10 00:59:09;;;;;;;20.15;10.93;;;;;;;;;;5075469;27;96828;-75
2022/05/10 01:01:36;;;;;;;18.92;10.93;;;;;;;;;;5063192;27;97748;-74
2022/05/10 01:04:12;;;;;;;15.50;10.52;;;;;;;;;;5072302;27;95178;-73
2022/05/10 01:07:00;;;;;;;20.02;11.85;;;;;;;;;;5054786;27;96444;-74
2022/05/10 01:09:39;;;;;;;18.67;11.50;;;;;;;;;;5053292;27;98120;-74
2022/05/10 01:12:05;;;;;;;23.98;11.63;;;;;;;;;;5059644;27;95413;-73
2022/05/10 01:14:35;;;;;;;20.25;11.60;;;;;;;;;;5057152;27;96794;-74
2022/05/10 01:17:01;;;;;;;21.50;11.05;;;;;;;;;;5054174;27;95333;-74
2022/05/10 01:19:28;;;;;;;21.00;11.40;;;;;;;;;;5054134;27;96674;-73
2022/05/10 01:22:13;;;;;;;21.48;11.65;;;;;;;;;;5053473;27;97558;-74
2022/05/10 01:24:45;;;;;;;20.20;11.05;;;;;;;;;;5053061;27;95457;-74
2022/05/10 01:27:11;;;;;;;;;;;;;;;;;;5055049;27;96910;-74
2022/05/10 01:29:52;;;;;;;22.23;11.98;;;;;;;;;;5052907;27;126919;-74
2022/05/10 01:35:08;;;;;;;20.55;12.50;;;;;;;;;;5066290;27;96704;-74
2022/05/10 01:37:36;;;;;;;19.20;12.23;;;;;;;;;;5056482;27;97476;-74
2022/05/10 01:40:23;;;;;;;22.50;12.95;;;;;;;;;;5054449;27;96773;-75
2022/05/10 01:42:59;;;;;;;23.30;12.82;;;;;;;;;;5056446;27;96384;-73
2022/05/10 01:45:25;;;;;;;20.17;12.63;;;;;;;;;;5074004;27;95060;-74
2022/05/10 01:47:59;;;;;;;21.23;13.77;;;;;;;;;;5074304;27;95882;-73
2022/05/10 01:50:25;;;;;;;24.77;13.30;;;;;;;;;;5057474;27;97419;-75
2022/05/10 01:53:11;;;;;;;23.02;13.82;;;;;;;;;;5053449;27;95341;-74
2022/05/10 01:55:48;;;;;;;23.52;13.77;;;;;;;;;;5058784;27;96878;-76
2022/05/10 01:58:19;;;;;;;21.25;14.05;;;;;;;;;;5056458;27;97072;-74
2022/05/10 02:00:49;;;;;;;19.42;12.13;;;;;;;;;;5052755;27;97149;-74
2022/05/10 02:03:15;;;;;;;21.02;13.10;;;;;;;;;;5053645;27;97836;-73
2022/05/10 02:05:48;;;;;;;22.70;13.15;;;;;;;;;;5053454;27;95293;-72
2022/05/10 02:08:25;;;;;;;28.20;14.48;;;;;;;;;;5054250;27;97524;-74
2022/05/10 02:10:53;;;;;;;22.70;14.15;;;;;;;;;;5053541;27;95925;-73
2022/05/10 02:13:23;;;;;;;25.38;14.88;;;;;;;;;;5053024;27;95195;-73
2022/05/10 02:16:00;;;;;;;22.45;13.73;;;;;;;;;;5053740;27;96923;-73
2022/05/10 02:18:35;;;;;;;23.17;13.88;;;;;;;;;;5053004;27;97428;-73
2022/05/10 02:21:15;;;;;;;22.95;13.77;;;;;;;;;;5075177;27;95416;-73
2022/05/10 02:23:45;;;;;;;29.52;13.52;;;;;;;;;;5073092;27;99402;-75
2022/05/10 02:26:14;;;;;;;22.02;13.98;;;;;;;;;;5073721;27;95393;-76
2022/05/10 02:29:00;;;;;;;22.02;13.73;;;;;;;;;;5070971;27;98037;-73
2022/05/10 02:33:06;;;;;;;30.10;14.18;;;;;;;;;;5053236;27;97590;-73
2022/05/10 02:34:20;;;;;;;21.73;13.93;;;;;;;;;;5062543;27;95214;-73
2022/05/10 02:36:46;;;;;;;25.77;14.63;;;;;;;;;;5073746;27;96799;-74
2022/05/10 02:39:13;;;;;;;36.13;15.80;;;;;;;;;;5073813;27;97295;-75
2022/05/10 02:41:39;;;;;;;25.85;15.30;;;;;;;;;;5051946;27;95508;-73
2022/05/10 02:44:05;;;;;;;22.83;15.23;;;;;;;;;;5056327;27;96880;-74
2022/05/10 02:46:32;;;;;;;26.45;15.07;;;;;;;;;;5053032;27;95183;-75
2022/05/10 02:48:58;;;;;;;26.50;14.98;;;;;;;;;;5061543;27;96801;-75
2022/05/10 02:51:25;;;;;;;29.05;15.63;;;;;;;;;;5072813;27;97317;-76
2022/05/10 02:53:51;;;;;;;31.50;15.52;;;;;;;;;;5073790;27;95164;-75
2022/05/10 02:56:20;;;;;;;25.27;15.50;;;;;;;;;;5072853;27;97191;-74
2022/05/10 02:58:50;;;;;;;25.55;14.85;;;;;;;;;;5066553;27;97212;-75
2022/05/10 03:01:38;;;;;;;25.40;15.63;;;;;;;;;;5051756;27;95314;-71
2022/05/10 03:04:06;;;;;;;27.27;16.77;;;;;;;;;;5053047;27;96745;-75
2022/05/10 03:06:32;;;;;;;29.17;16.70;;;;;;;;;;5055351;27;97418;-76
2022/05/10 03:09:00;;;;;;;30.70;17.55;;;;;;;;;;5063970;27;96884;-75
2022/05/10 03:11:27;;;;;;;31.17;17.67;;;;;;;;;;5072660;27;97393;-73
2022/05/10 03:13:53;;;;;;;37.72;18.88;;;;;;;;;;5070290;27;95297;-73
2022/05/10 03:16:20;;;;;;;38.55;20.02;;;;;;;;;;5052002;27;96702;-74
2022/05/10 03:18:46;;;;;;;33.45;19.77;;;;;;;;;;5052642;27;97041;-73
2022/05/10 03:21:13;;;;;;;37.60;20.73;;;;;;;;;;5052412;27;95296;-74
2022/05/10 03:23:39;;;;;;;31.27;20.40;;;;;;;;;;5051223;27;96828;-74
2022/05/10 03:26:06;;;;;;;37.05;21.83;;;;;;;;;;5052155;27;97828;-73
2022/05/10 03:28:32;;;;;;;35.78;21.00;;;;;;;;;;5053424;27;95459;-76
2022/05/10 03:30:59;;;;;;;45.05;21.33;;;;;;;;;;5049596;27;97306;-76
2022/05/10 03:33:25;;;;;;;39.80;21.92;;;;;;;;;;5050213;27;95182;-75
2022/05/10 03:35:52;;;;;;;33.25;19.65;;;;;;;;;;5050556;27;96707;-76
2022/05/10 03:38:19;;;;;;;35.63;20.02;;;;;;;;;;5049368;27;97535;-75
2022/05/10 03:40:45;;;;;;;37.42;21.25;;;;;;;;;;5050155;27;95390;-75
2022/05/10 03:43:12;;;;;;;35.03;20.63;;;;;;;;;;5049832;27;95801;-76
2022/05/10 03:45:38;;;;;;;38.58;21.20;;;;;;;;;;5070459;27;97899;-74
2022/05/10 03:48:05;;;;;;;35.22;21.08;;;;;;;;;;5074390;27;95354;-75
2022/05/10 03:50:32;;;;;;;37.90;20.42;;;;;;;;;;5076523;27;96815;-76
2022/05/10 03:52:58;;;;;;;41.05;20.42;;;;;;;;;;5074189;27;95739;-74
2022/05/10 03:55:25;;;;;;;39.88;21.13;;;;;;;;;;5055665;27;96697;-75
2022/05/10 03:57:52;;;;;;;33.67;21.20;;;;;;;;;;5053105;27;97363;-75
2022/05/10 04:00:21;;;;;;;36.25;20.70;;;;;;;;;;5053442;27;95138;-73
2022/05/10 04:02:48;;;;;;;37.72;22.38;;;;;;;;;;5053652;27;96722;-74
2022/05/10 04:05:15;;;;;;;37.47;22.10;;;;;;;;;;5070984;27;96150;-74
2022/05/10 04:07:42;;;;;;;30.10;19.08;;;;;;;;;;5073918;27;95455;-75
2022/05/10 04:10:08;;;;;;;41.65;21.77;;;;;;;;;;5060866;27;96809;-74
2022/05/10 04:12:35;;;;;;;38.10;20.75;;;;;;;;;;5052550;27;95406;-74
2022/05/10 04:15:02;;;;;;;38.85;19.67;;;;;;;;;;5053637;27;97120;-73
2022/05/10 04:17:29;;;;;;;42.50;20.65;;;;;;;;;;5052732;27;97374;-75
2022/05/10 04:19:56;;;;;;;34.40;20.60;;;;;;;;;;5053011;27;95516;-74
2022/05/10 04:22:22;;;;;;;39.47;21.25;;;;;;;;;;5052803;27;96593;-73
2022/05/10 04:25:09;;;;;;;34.50;21.05;;;;;;;;;;5052929;27;98265;-73
2022/05/10 04:27:35;;;;;;;37.70;20.83;;;;;;;;;;5052789;27;96584;-75
2022/05/10 04:30:02;;;;;;;35.92;20.40;;;;;;;;;;5053042;27;95808;-75
2022/05/10 04:32:29;;;;;;;35.30;20.30;;;;;;;;;;5055390;27;97314;-75
2022/05/10 04:34:55;;;;;;;36.15;21.25;;;;;;;;;;5053112;27;96895;-74
2022/05/10 04:37:21;;;;;;;36.08;20.77;;;;;;;;;;5052592;27;97463;-74
2022/05/10 04:42:32;;;;;;;38.03;20.95;;;;;;;;;;5052771;27;96049;-75
2022/05/10 04:44:59;;;;;;;31.15;20.65;;;;;;;;;;5034854;27;97604;-75
2022/05/10 04:47:26;;;;;;;36.80;20.83;;;;;;;;;;5051903;27;95516;-76
2022/05/10 04:49:52;;;;;;;37.13;21.02;;;;;;;;;;5066047;27;96889;-75
2022/05/10 04:52:18;;;;;;;39.05;21.55;;;;;;;;;;5072606;27;97162;-76
2022/05/10 04:54:45;;;;;;;34.25;21.48;;;;;;;;;;5076364;27;95741;-76
2022/05/10 04:57:11;;;;;;;36.58;21.67;;;;;;;;;;5072736;27;97730;-76
2022/05/10 04:59:37;;;;;;;37.67;21.45;;;;;;;;;;5073123;27;95365;-76
2022/05/10 19:42:52;;;;;;;7.05;2.50;;;;;;;;;;5008788;28;96762;-76
2022/05/10 19:45:19;;;;;;;6.78;2.58;;;;;;;;;;5006597;28;97250;-76
2022/05/10 19:47:46;;;;;;;10.90;2.60;;;;;;;;;;5004628;28;96155;-76
2022/05/10 19:50:14;;;;;;;7.32;2.38;;;;;;;;;;4993834;28;97011;-76
2022/05/10 19:52:43;;;;;;;7.55;2.60;;;;;;;;;;5006339;28;97350;-76
2022/05/10 19:55:12;;;;;;;7.10;2.20;;;;;;;;;;5004700;28;95517;-76
2022/05/10 19:57:39;;;;;;;6.30;2.50;;;;;;;;;;5004021;28;96597;-75
2022/05/10 20:00:07;;;;;;;6.63;2.30;;;;;;;;;;4987704;28;96273;-75
2022/05/10 20:05:25;;;;;;;9.57;3.00;;;;;;;;;;5002630;28;97483;-76
2022/05/10 20:07:55;;;;;;;9.43;2.60;;;;;;;;;;5005857;28;95401;-74
2022/05/10 20:10:23;;;;;;;11.52;3.05;;;;;;;;;;5001059;28;97041;-76
2022/05/10 20:13:00;;;;;;;9.27;3.03;;;;;;;;;;4995754;28;97368;-75
2022/05/10 20:15:27;;;;;;;9.50;2.78;;;;;;;;;;5004555;28;97067;-75
2022/05/10 20:17:55;;;;;;;10.07;2.75;;;;;;;;;;5000261;28;95740;-75
2022/05/10 20:20:23;;;;;;;6.22;2.63;;;;;;;;;;5005167;28;96450;-74
2022/05/10 20:22:52;;;;;;;6.50;2.63;;;;;;;;;;5001348;28;95385;-75
2022/05/10 20:25:18;;;;;;;7.25;2.70;;;;;;;;;;5007732;28;97303;-75
2022/05/10 20:27:45;;;;;;;7.75;2.55;;;;;;;;;;5002687;28;95554;-75
2022/05/10 20:30:14;;;;;;;14.07;3.22;;;;;;;;;;4990653;28;95653;-75
2022/05/10 20:32:41;;;;;;;6.47;2.42;;;;;;;;;;4987856;28;97334;-76
2022/05/10 20:35:09;;;;;;;7.20;3.00;;;;;;;;;;4993915;28;96590;-75
2022/05/10 20:37:37;;;;;;;10.30;3.20;;;;;;;;;;5002317;28;96753;-75
2022/05/10 20:40:07;;;;;;;10.52;3.17;;;;;;;;;;4993827;28;97753;-75
2022/05/10 20:42:34;;;;;;;9.63;3.42;;;;;;;;;;5005114;28;95459;-75
2022/05/10 20:45:02;;;;;;;7.28;2.60;;;;;;;;;;4999699;28;95697;-74
2022/05/10 20:47:29;;;;;;;10.38;2.92;;;;;;;;;;5009046;28;97244;-75
2022/05/10 20:49:56;;;;;;;12.80;3.28;;;;;;;;;;4992797;28;96799;-75
2022/05/10 20:52:22;;;;;;;6.68;2.72;;;;;;;;;;4989560;28;97702;-74
2022/05/10 20:54:49;;;;;;;9.68;3.00;;;;;;;;;;4982446;28;95451;-74
2022/05/10 20:57:15;;;;;;;10.27;2.97;;;;;;;;;;4993268;28;97241;-74
2022/05/10 20:59:42;;;;;;;9.90;3.47;;;;;;;;;;4992100;28;96976;-74
2022/05/10 21:02:08;;;;;;;12.48;3.05;;;;;;;;;;4993163;28;95524;-74
2022/05/10 21:04:35;;;;;;;10.43;3.10;;;;;;;;;;4993234;28;97370;-74
2022/05/10 21:09:46;;;;;;;6.25;2.97;;;;;;;;;;4995648;28;95496;-74
2022/05/10 21:12:12;;;;;;;9.35;3.40;;;;;;;;;;4992310;28;97712;-74
2022/05/10 21:14:39;;;;;;;8.75;3.10;;;;;;;;;;4992835;28;95730;-74
2022/05/10 21:17:05;;;;;;;8.85;2.97;;;;;;;;;;4992899;28;96933;-74
2022/05/10 21:19:32;;;;;;;8.73;3.00;;;;;;;;;;4991593;28;97376;-74
2022/05/10 21:21:58;;;;;;;11.20;3.03;;;;;;;;;;4992760;28;95828;-75
2022/05/10 21:24:24;;;;;;;11.38;3.08;;;;;;;;;;4992786;28;96779;-74
2022/05/10 21:27:06;;;;;;;10.77;3.22;;;;;;;;;;4992495;28;98554;-75
2022/05/10 21:32:28;;;;;;;7.88;3.25;;;;;;;;;;4995023;28;96598;-74
2022/05/10 21:34:56;;;;;;;10.27;3.30;;;;;;;;;;4981358;28;95782;-74
2022/05/10 21:37:26;;;;;;;8.50;3.17;;;;;;;;;;4972554;28;97624;-74
2022/05/10 21:39:54;;;;;;;8.77;2.88;;;;;;;;;;4972840;28;97392;-74
2022/05/10 21:42:20;;;;;;;9.80;3.22;;;;;;;;;;4972210;28;97022;-74
2022/05/10 21:44:47;;;;;;;8.63;3.40;;;;;;;;;;4972785;28;95996;-74
2022/05/10 21:47:13;;;;;;;13.65;3.40;;;;;;;;;;4971881;28;96899;-74
2022/05/10 21:49:40;;;;;;;8.35;3.28;;;;;;;;;;4981976;28;95434;-74
2022/05/10 21:52:07;;;;;;;5.57;3.10;;;;;;;;;;4972358;28;95835;-73
2022/05/10 21:54:33;;;;;;;10.75;3.70;;;;;;;;;;4974269;28;95353;-74
2022/05/10 21:56:59;;;;;;;8.40;3.47;;;;;;;;;;4972614;28;96721;-74
2022/05/10 21:59:26;;;;;;;8.38;3.33;;;;;;;;;;4971995;28;97371;-74
2022/05/10 22:01:53;;;;;;;13.20;3.47;;;;;;;;;;4991410;28;96078;-72
2022/05/10 22:04:24;;;;;;;6.13;3.17;;;;;;;;;;4987438;28;96830;-74
2022/05/10 22:06:50;;;;;;;8.23;3.13;;;;;;;;;;4992200;28;97348;-74
2022/05/10 22:09:17;;;;;;;6.05;3.28;;;;;;;;;;4991294;28;95857;-74
2022/05/10 22:11:43;;;;;;;7.70;3.53;;;;;;;;;;4975261;28;96846;-74
2022/05/10 22:14:09;;;;;;;7.97;3.63;;;;;;;;;;4973883;28;97353;-75
2022/05/10 22:16:36;;;;;;;12.27;3.38;;;;;;;;;;4970247;28;97167;-75
2022/05/10 22:19:03;;;;;;;7.63;2.85;;;;;;;;;;4974738;28;97315;-75
2022/05/10 22:21:31;;;;;;;9.38;2.97;;;;;;;;;;4989297;28;95207;-75
2022/05/10 22:23:58;;;;;;;6.68;2.78;;;;;;;;;;4990488;28;96986;-75
2022/05/10 22:26:24;;;;;;;7.10;2.60;;;;;;;;;;4989964;28;97512;-75
2022/05/10 22:28:51;;;;;;;5.80;2.63;;;;;;;;;;4990125;28;95374;-75
2022/05/10 22:31:18;;;;;;;9.63;2.65;;;;;;;;;;4979800;28;96797;-74
2022/05/10 22:33:44;;;;;;;5.88;2.38;;;;;;;;;;4971236;28;97655;-75
2022/05/10 22:36:11;;;;;;;7.57;2.30;;;;;;;;;;4989098;28;95358;-75
2022/05/10 22:38:37;;;;;;;6.32;2.20;;;;;;;;;;4969923;28;98506;-75
2022/05/10 22:41:04;;;;;;;8.70;2.22;;;;;;;;;;4970728;28;95480;-74
2022/05/10 22:43:33;;;;;;;5.53;2.20;;;;;;;;;;4969576;28;97096;-74
2022/05/10 22:46:04;;;;;;;10.02;2.42;;;;;;;;;;4970217;28;97967;-75
2022/05/10 22:48:30;;;;;;;6.07;2.42;;;;;;;;;;4970303;28;95365;-75
2022/05/10 22:50:57;;;;;;;6.18;2.33;;;;;;;;;;4979299;28;97058;-75
2022/05/10 22:53:23;;;;;;;7.10;1.90;;;;;;;;;;4989919;28;98140;-75
2022/05/10 22:55:49;;;;;;;7.60;2.65;;;;;;;;;;4990924;28;95365;-75
2022/05/10 22:58:16;;;;;;;6.72;2.30;;;;;;;;;;4995247;28;96750;-76
2022/05/10 23:00:42;;;;;;;8.27;2.20;;;;;;;;;;4990052;28;95718;-75
2022/05/10 23:03:11;;;;;;;6.35;2.20;;;;;;;;;;4971103;28;96752;-74
2022/05/10 23:05:39;;;;;;;7.75;2.00;;;;;;;;;;4969629;28;97731;-72
2022/05/10 23:08:05;;;;;;;7.40;2.25;;;;;;;;;;4970171;28;95693;-74
2022/05/10 23:10:32;;;;;;;7.40;2.67;;;;;;;;;;4969938;28;96672;-75
2022/05/10 23:12:59;;;;;;;8.43;2.10;;;;;;;;;;4983412;28;98075;-75
2022/05/10 23:15:25;;;;;;;7.45;2.35;;;;;;;;;;4989472;28;95278;-75
2022/05/10 23:17:52;;;;;;;6.53;2.17;;;;;;;;;;4989392;28;96989;-75
2022/05/10 23:20:18;;;;;;;7.68;2.25;;;;;;;;;;4991140;28;97345;-75
2022/05/10 23:22:45;;;;;;;9.07;2.58;;;;;;;;;;4981525;28;97265;-74
2022/05/10 23:25:12;;;;;;;9.50;2.63;;;;;;;;;;4968838;28;96841;-75
2022/05/10 23:27:40;;;;;;;8.98;2.80;;;;;;;;;;4971699;28;95423;-75
2022/05/10 23:30:07;;;;;;;6.55;2.30;;;;;;;;;;4988113;28;95827;-75
2022/05/10 23:32:33;;;;;;;9.32;3.10;;;;;;;;;;4987745;28;97645;-75
2022/05/10 23:34:59;;;;;;;7.95;2.35;;;;;;;;;;4988310;28;95620;-75
2022/05/10 23:37:26;;;;;;;8.20;2.50;;;;;;;;;;4987724;28;96064;-75
2022/05/10 23:39:52;;;;;;;6.03;2.45;;;;;;;;;;4988689;28;97276;-75
2022/05/10 23:42:18;;;;;;;7.47;2.40;;;;;;;;;;4991043;28;95586;-75
2022/05/10 23:44:45;;;;;;;11.45;2.40;;;;;;;;;;4988842;28;96249;-75
2022/05/10 23:47:11;;;;;;;5.68;2.53;;;;;;;;;;4989032;28;95952;-73
2022/05/10 23:49:38;;;;;;;6.00;2.45;;;;;;;;;;4987294;28;97283;-75
2022/05/10 23:52:04;;;;;;;9.68;2.75;;;;;;;;;;4986036;28;97402;-75
2022/05/10 23:54:30;;;;;;;9.98;2.45;;;;;;;;;;4987739;28;95581;-76
2022/05/10 23:56:58;;;;;;;5.35;2.65;;;;;;;;;;4988751;28;97245;-76
2022/05/10 23:59:24;;;;;;;9.90;2.60;;;;;;;;;;4987711;28;97758;-74
